createdAt,value
2019-05-19T00:01:46.430Z,58.55
2019-05-19T00:04:15.199Z,58.24
2019-05-19T00:06:43.933Z,58.24
2019-05-19T00:09:12.760Z,58.17
2019-05-19T00:11:41.542Z,58.28
2019-05-19T00:14:10.201Z,58.26
2019-05-19T00:16:38.867Z,58.74
2019-05-19T00:19:07.645Z,58.47
2019-05-19T00:21:36.388Z,58.76
2019-05-19T00:24:05.083Z,58.04
2019-05-19T00:26:33.907Z,58.26
2019-05-19T00:29:02.574Z,59.08
2019-05-19T00:31:31.299Z,58.76
2019-05-19T00:33:59.944Z,58.57
2019-05-19T00:36:28.621Z,58.36
2019-05-19T00:38:57.268Z,57.99
2019-05-19T00:41:26.048Z,58.41
2019-05-19T00:43:54.732Z,58.46
2019-05-19T00:46:23.880Z,57.92
2019-05-19T00:48:52.657Z,58.93
2019-05-19T00:51:22.113Z,56.40
2019-05-19T00:53:50.757Z,56.21
2019-05-19T00:56:20.166Z,57.66
2019-05-19T00:58:50.092Z,57.64
2019-05-19T01:01:18.821Z,55.23
2019-05-19T01:03:47.536Z,55.43
2019-05-19T01:06:16.267Z,54.87
2019-05-19T01:08:45.006Z,55.19
2019-05-19T01:11:13.711Z,54.55
2019-05-19T01:13:42.382Z,54.52
2019-05-19T01:16:11.029Z,54.59
2019-05-19T01:18:39.797Z,54.57
2019-05-19T01:21:08.510Z,54.90
2019-05-19T01:23:37.178Z,54.79
2019-05-19T01:26:05.925Z,54.63
2019-05-19T01:28:34.655Z,54.97
2019-05-19T01:31:03.374Z,55.19
2019-05-19T01:33:33.895Z,54.40
2019-05-19T01:36:02.614Z,54.32
2019-05-19T01:38:31.342Z,54.14
2019-05-19T01:40:59.999Z,54.99
2019-05-19T01:43:28.729Z,54.90
2019-05-19T01:45:57.496Z,55.08
2019-05-19T01:48:28.033Z,55.20
2019-05-19T01:50:56.516Z,55.03
2019-05-19T01:53:25.293Z,54.68
2019-05-19T01:55:54.032Z,55.12
2019-05-19T01:58:22.756Z,54.14
2019-05-19T02:00:51.454Z,54.62
2019-05-19T02:03:20.196Z,54.61
2019-05-19T02:05:48.914Z,54.25
2019-05-19T02:08:17.650Z,54.06
2019-05-19T02:10:46.338Z,54.81
2019-05-19T02:13:15.006Z,58.92
2019-05-19T02:15:43.863Z,61.11
2019-05-19T02:18:12.588Z,61.52
2019-05-19T02:20:41.338Z,61.36
2019-05-19T02:23:10.033Z,61.28
2019-05-19T02:25:38.709Z,62.36
2019-05-19T02:28:07.403Z,62.27
2019-05-19T02:30:36.183Z,61.23
2019-05-19T02:33:04.843Z,61.84
2019-05-19T02:35:33.489Z,61.91
2019-05-19T02:38:02.251Z,61.83
2019-05-19T02:40:33.939Z,60.88
2019-05-19T02:43:03.325Z,60.89
2019-05-19T02:45:34.285Z,60.87
2019-05-19T02:48:04.218Z,61.16
2019-05-19T02:50:50.783Z,61.25
2019-05-19T02:53:06.585Z,61.46
2019-05-19T02:55:36.618Z,60.25
2019-05-19T02:58:06.330Z,57.36
2019-05-19T03:00:40.518Z,57.88
2019-05-19T03:03:09.570Z,60.17
2019-05-19T03:05:38.885Z,58.49
2019-05-19T03:08:07.617Z,59.71
2019-05-19T03:10:36.344Z,59.64
2019-05-19T03:13:05.016Z,55.30
2019-05-19T03:15:33.696Z,55.17
2019-05-19T03:18:02.316Z,56.80
2019-05-19T03:20:30.942Z,57.92
2019-05-19T03:22:59.744Z,56.33
2019-05-19T03:25:28.428Z,59.10
2019-05-19T03:27:57.281Z,58.72
2019-05-19T03:30:43.682Z,59.15
2019-05-19T03:33:16.907Z,61.10
2019-05-19T03:35:45.498Z,60.66
2019-05-19T03:38:14.270Z,61.06
2019-05-19T03:40:43.036Z,61.78
2019-05-19T03:43:11.812Z,61.74
2019-05-19T03:45:40.748Z,62.11
2019-05-19T03:48:09.442Z,61.39
2019-05-19T03:50:38.183Z,61.95
2019-05-19T03:53:06.911Z,64.35
2019-05-19T03:55:35.604Z,61.70
2019-05-19T03:58:04.333Z,61.50
2019-05-19T04:00:33.020Z,61.51
2019-05-19T04:03:01.653Z,61.40
2019-05-19T04:05:30.226Z,62.77
2019-05-19T04:07:58.972Z,63.26
2019-05-19T04:10:27.638Z,62.37
2019-05-19T04:12:56.381Z,61.92
2019-05-19T04:15:25.168Z,63.33
2019-05-19T04:17:53.846Z,62.16
2019-05-19T04:20:22.468Z,62.44
2019-05-19T04:22:51.188Z,62.82
2019-05-19T04:25:19.903Z,62.45
2019-05-19T04:27:48.567Z,59.46
2019-05-19T04:30:17.434Z,53.41
2019-05-19T04:32:46.089Z,49.67
2019-05-19T04:35:14.912Z,48.35
2019-05-19T04:37:43.606Z,47.06
2019-05-19T04:40:12.482Z,48.61
2019-05-19T04:42:44.171Z,48.81
2019-05-19T04:45:13.596Z,48.27
2019-05-19T04:47:42.211Z,49.58
2019-05-19T04:50:11.444Z,48.33
2019-05-19T04:52:40.125Z,48.09
2019-05-19T04:55:09.358Z,49.18
2019-05-19T04:57:38.091Z,47.57
2019-05-19T05:00:07.288Z,47.26
2019-05-19T05:02:35.942Z,46.28
2019-05-19T05:05:05.723Z,45.81
2019-05-19T05:07:34.516Z,46.45
2019-05-19T05:10:03.245Z,45.69
2019-05-19T05:12:31.902Z,46.86
2019-05-19T05:15:00.612Z,46.31
2019-05-19T05:17:29.339Z,47.77
2019-05-19T05:19:58.006Z,45.20
2019-05-19T05:22:26.626Z,45.00
2019-05-19T05:24:55.302Z,44.62
2019-05-19T05:27:24.122Z,45.34
2019-05-19T05:29:52.928Z,45.53
2019-05-19T05:32:21.701Z,45.75
2019-05-19T05:34:50.431Z,46.34
2019-05-19T05:37:19.156Z,47.21
2019-05-19T05:39:47.812Z,46.52
2019-05-19T05:42:16.469Z,46.60
2019-05-19T05:44:45.329Z,45.43
2019-05-19T05:47:14.038Z,44.53
2019-05-19T05:49:42.631Z,42.98
2019-05-19T05:52:11.418Z,42.69
2019-05-19T05:54:40.079Z,42.18
2019-05-19T05:57:08.750Z,41.92
2019-05-19T05:59:37.537Z,43.46
2019-05-19T06:02:06.260Z,44.20
2019-05-19T06:04:35.022Z,43.67
2019-05-19T06:07:03.702Z,43.18
2019-05-19T06:09:32.309Z,42.13
2019-05-19T06:12:01.031Z,42.46
2019-05-19T06:14:29.817Z,42.08
2019-05-19T06:16:58.449Z,42.48
2019-05-19T06:19:27.155Z,42.27
2019-05-19T06:21:55.859Z,43.36
2019-05-19T06:24:24.508Z,42.38
2019-05-19T06:26:53.263Z,41.98
2019-05-19T06:29:22.162Z,42.74
2019-05-19T06:31:50.995Z,42.02
2019-05-19T06:34:19.707Z,40.88
2019-05-19T06:36:48.484Z,40.77
2019-05-19T06:39:17.152Z,41.53
2019-05-19T06:41:45.877Z,40.97
2019-05-19T06:44:14.591Z,40.67
2019-05-19T06:46:43.236Z,40.57
2019-05-19T06:49:12.008Z,40.46
2019-05-19T06:51:40.674Z,39.21
2019-05-19T06:54:09.333Z,40.63
2019-05-19T06:56:38.176Z,39.76
2019-05-19T06:59:07.029Z,39.31
2019-05-19T07:01:35.743Z,39.16
2019-05-19T07:04:04.583Z,39.46
2019-05-19T07:06:34.317Z,39.38
2019-05-19T07:09:04.752Z,39.04
2019-05-19T07:11:33.451Z,37.33
2019-05-19T07:14:03.047Z,38.99
2019-05-19T07:16:31.949Z,37.62
2019-05-19T07:19:00.669Z,38.13
2019-05-19T07:21:29.398Z,37.12
2019-05-19T07:23:58.091Z,38.11
2019-05-19T07:26:27.143Z,36.65
2019-05-19T07:28:58.869Z,38.13
2019-05-19T07:31:26.345Z,38.07
2019-05-19T07:33:55.044Z,38.57
2019-05-19T07:36:23.708Z,38.97
2019-05-19T07:38:52.480Z,39.31
2019-05-19T07:41:21.194Z,40.10
2019-05-19T07:43:49.934Z,39.53
2019-05-19T07:46:18.668Z,39.99
2019-05-19T07:48:47.294Z,39.65
2019-05-19T07:51:16.044Z,40.77
2019-05-19T07:53:44.784Z,40.84
2019-05-19T07:56:13.443Z,41.64
2019-05-19T07:59:03.075Z,41.15
2019-05-19T08:01:31.710Z,41.91
2019-05-19T08:04:00.354Z,42.38
2019-05-19T08:06:28.980Z,41.87
2019-05-19T08:08:57.954Z,41.13
2019-05-19T08:11:26.563Z,41.79
2019-05-19T08:13:55.258Z,43.14
2019-05-19T08:16:23.966Z,42.98
2019-05-19T08:18:52.829Z,39.94
2019-05-19T08:21:21.450Z,41.04
2019-05-19T08:24:00.079Z,39.33
2019-05-19T08:26:20.584Z,38.59
2019-05-19T08:28:49.382Z,38.43
2019-05-19T08:31:18.047Z,38.26
2019-05-19T08:33:46.741Z,37.28
2019-05-19T08:36:15.497Z,37.23
2019-05-19T08:38:44.221Z,37.92
2019-05-19T08:41:12.914Z,36.75
2019-05-19T08:43:41.685Z,34.54
2019-05-19T08:46:11.427Z,36.02
2019-05-19T08:48:40.141Z,35.84
2019-05-19T08:51:10.472Z,35.01
2019-05-19T08:53:39.160Z,34.43
2019-05-19T08:56:10.724Z,34.13
2019-05-19T08:58:39.571Z,34.28
2019-05-19T09:01:08.289Z,32.77
2019-05-19T09:03:36.947Z,33.36
2019-05-19T09:06:05.693Z,32.21
2019-05-19T09:08:34.378Z,33.29
2019-05-19T09:11:02.996Z,33.54
2019-05-19T09:13:45.640Z,32.10
2019-05-19T09:16:21.417Z,32.08
2019-05-19T09:18:51.503Z,32.77
2019-05-19T09:21:20.140Z,33.57
2019-05-19T09:23:48.790Z,33.68
2019-05-19T09:26:17.500Z,32.65
2019-05-19T09:28:46.335Z,33.61
2019-05-19T09:31:14.918Z,33.13
2019-05-19T09:33:43.577Z,32.88
2019-05-19T09:36:12.456Z,31.91
2019-05-19T09:38:41.191Z,32.39
2019-05-19T09:41:11.568Z,33.25
2019-05-19T09:43:41.849Z,33.21
2019-05-19T09:46:13.960Z,33.48
2019-05-19T09:48:42.181Z,33.89
2019-05-19T09:51:12.460Z,35.12
2019-05-19T09:53:41.101Z,35.00
2019-05-19T09:56:09.819Z,34.79
2019-05-19T09:58:38.466Z,34.16
2019-05-19T10:01:07.194Z,34.27
2019-05-19T10:03:35.876Z,34.60
2019-05-19T10:06:04.526Z,34.08
2019-05-19T10:08:34.131Z,34.70
2019-05-19T10:11:28.825Z,34.15
2019-05-19T10:13:57.647Z,33.31
2019-05-19T10:16:26.463Z,33.47
2019-05-19T10:18:55.183Z,33.41
2019-05-19T10:21:23.938Z,33.39
2019-05-19T10:23:52.710Z,33.41
2019-05-19T10:26:21.510Z,34.59
2019-05-19T10:28:50.286Z,34.54
2019-05-19T10:31:19.044Z,34.60
2019-05-19T10:33:48.013Z,34.65
2019-05-19T10:36:16.630Z,35.42
2019-05-19T10:38:45.350Z,35.43
2019-05-19T10:41:14.029Z,35.06
2019-05-19T10:43:42.879Z,34.83
2019-05-19T10:46:11.547Z,35.21
2019-05-19T10:48:40.312Z,34.98
2019-05-19T10:51:08.964Z,34.38
2019-05-19T10:53:37.579Z,34.82
2019-05-19T10:56:06.292Z,35.59
2019-05-19T10:58:35.036Z,34.58
2019-05-19T11:01:03.816Z,34.84
2019-05-19T11:03:32.611Z,35.40
2019-05-19T11:06:01.275Z,35.49
2019-05-19T11:08:30.003Z,35.15
2019-05-19T11:10:58.623Z,35.35
2019-05-19T11:13:27.377Z,35.42
2019-05-19T11:15:56.124Z,36.07
2019-05-19T11:18:24.891Z,36.11
2019-05-19T11:20:53.679Z,36.22
2019-05-19T11:23:22.576Z,36.39
2019-05-19T11:25:51.953Z,36.41
2019-05-19T11:28:20.837Z,36.15
2019-05-19T11:30:49.543Z,36.37
2019-05-19T11:33:18.195Z,36.42
2019-05-19T11:35:46.928Z,36.63
2019-05-19T11:38:15.669Z,35.89
2019-05-19T11:40:44.416Z,35.91
2019-05-19T11:43:13.055Z,35.53
2019-05-19T11:45:41.880Z,36.73
2019-05-19T11:48:10.589Z,36.91
2019-05-19T11:50:42.000Z,36.66
2019-05-19T11:53:09.696Z,36.55
2019-05-19T11:55:38.482Z,36.55
2019-05-19T11:58:09.560Z,37.15
2019-05-19T12:00:38.253Z,37.05
2019-05-19T12:03:06.893Z,37.17
2019-05-19T12:05:35.658Z,37.13
2019-05-19T12:08:04.416Z,37.78
2019-05-19T12:10:33.130Z,37.64
2019-05-19T12:13:01.806Z,37.61
2019-05-19T12:15:30.589Z,38.07
2019-05-19T12:17:59.159Z,37.72
2019-05-19T12:20:28.228Z,37.67
2019-05-19T12:22:57.013Z,37.38
2019-05-19T12:25:25.729Z,38.14
2019-05-19T12:27:54.523Z,38.79
2019-05-19T12:30:23.361Z,38.96
2019-05-19T12:32:52.034Z,39.08
2019-05-19T12:35:21.004Z,38.89
2019-05-19T12:37:49.715Z,40.04
2019-05-19T12:40:22.446Z,39.99
2019-05-19T12:42:49.416Z,40.59
2019-05-19T12:45:18.608Z,40.99
2019-05-19T12:47:47.328Z,40.48
2019-05-19T12:50:16.057Z,40.47
2019-05-19T12:52:44.736Z,40.73
2019-05-19T12:55:13.765Z,40.73
2019-05-19T12:57:42.403Z,41.02
2019-05-19T13:00:11.267Z,41.53
2019-05-19T13:02:39.896Z,41.48
2019-05-19T13:05:08.836Z,41.33
2019-05-19T13:07:37.490Z,41.19
2019-05-19T13:10:07.553Z,40.68
2019-05-19T13:12:36.207Z,40.44
2019-05-19T13:15:07.120Z,39.89
2019-05-19T13:17:35.907Z,40.14
2019-05-19T13:20:05.492Z,40.08
2019-05-19T13:22:34.128Z,40.02
2019-05-19T13:25:02.996Z,39.62
2019-05-19T13:27:31.641Z,39.89
2019-05-19T13:30:00.418Z,39.75
2019-05-19T13:32:29.137Z,38.82
2019-05-19T13:34:57.794Z,38.86
2019-05-19T13:37:26.493Z,39.78
2019-05-19T13:39:55.271Z,39.35
2019-05-19T13:42:24.008Z,39.69
2019-05-19T13:44:52.645Z,39.86
2019-05-19T13:47:21.392Z,39.43
2019-05-19T13:49:50.132Z,39.85
2019-05-19T13:52:18.917Z,40.05
2019-05-19T13:54:47.598Z,40.42
2019-05-19T13:57:16.242Z,40.33
2019-05-19T13:59:45.048Z,41.04
2019-05-19T14:02:13.818Z,40.78
2019-05-19T14:04:42.308Z,40.74
2019-05-19T14:07:10.952Z,40.72
2019-05-19T14:09:39.713Z,40.82
2019-05-19T14:12:08.376Z,40.58
2019-05-19T14:14:37.113Z,40.78
2019-05-19T14:17:05.881Z,40.80
2019-05-19T14:19:34.655Z,40.92
2019-05-19T14:22:03.294Z,40.61
2019-05-19T14:24:32.251Z,40.33
2019-05-19T14:27:00.975Z,40.77
2019-05-19T14:29:29.615Z,41.30
2019-05-19T14:31:58.327Z,40.77
2019-05-19T14:34:27.025Z,40.73
2019-05-19T14:36:55.878Z,40.69
2019-05-19T14:39:24.568Z,40.94
2019-05-19T14:41:54.999Z,40.92
2019-05-19T14:44:23.653Z,40.95
2019-05-19T14:46:52.299Z,40.91
2019-05-19T14:49:21.006Z,40.86
2019-05-19T14:51:49.717Z,41.07
2019-05-19T14:54:18.431Z,41.39
2019-05-19T14:56:47.095Z,41.43
2019-05-19T14:59:15.761Z,41.49
2019-05-19T15:01:44.503Z,41.65
2019-05-19T15:04:13.216Z,41.62
2019-05-19T15:06:41.794Z,41.44
2019-05-19T15:09:10.568Z,41.22
2019-05-19T15:11:39.395Z,41.20
2019-05-19T15:14:08.137Z,41.77
2019-05-19T15:16:36.790Z,40.95
2019-05-19T15:19:05.662Z,41.07
2019-05-19T15:21:34.249Z,40.69
2019-05-19T15:24:02.999Z,40.19
2019-05-19T15:26:31.762Z,40.29
2019-05-19T15:29:00.417Z,40.56
2019-05-19T15:31:29.092Z,40.12
2019-05-19T15:33:57.980Z,40.01
2019-05-19T15:36:26.615Z,39.83
2019-05-19T15:38:55.382Z,40.07
2019-05-19T15:41:24.106Z,40.73
2019-05-19T15:43:52.830Z,39.66
2019-05-19T15:46:21.528Z,40.14
2019-05-19T15:48:50.158Z,40.88
2019-05-19T15:51:28.421Z,40.62
2019-05-19T15:53:50.133Z,40.36
2019-05-19T15:56:18.886Z,40.96
2019-05-19T15:58:47.461Z,40.87
2019-05-19T16:01:16.329Z,41.54
2019-05-19T16:03:45.078Z,41.69
2019-05-19T16:06:13.760Z,41.65
2019-05-19T16:08:42.480Z,42.06
2019-05-19T16:11:11.171Z,42.02
2019-05-19T16:13:39.789Z,41.87
2019-05-19T16:16:08.458Z,41.74
2019-05-19T16:18:37.167Z,42.10
2019-05-19T16:21:05.899Z,42.27
2019-05-19T16:23:34.587Z,42.56
2019-05-19T16:26:03.262Z,42.83
2019-05-19T16:28:32.015Z,43.41
2019-05-19T16:31:00.693Z,42.97
2019-05-19T16:33:29.276Z,42.16
2019-05-19T16:35:57.866Z,41.94
2019-05-19T16:38:26.643Z,42.33
2019-05-19T16:40:56.207Z,43.01
2019-05-19T16:43:26.335Z,43.50
2019-05-19T16:45:55.105Z,43.64
2019-05-19T16:48:23.786Z,43.76
2019-05-19T16:50:52.500Z,42.74
2019-05-19T16:53:21.101Z,42.35
2019-05-19T16:55:49.778Z,42.53
2019-05-19T16:58:21.462Z,42.04
2019-05-19T17:00:49.009Z,42.59
2019-05-19T17:03:17.634Z,42.57
2019-05-19T17:05:46.301Z,42.95
2019-05-19T17:08:15.005Z,43.49
2019-05-19T17:10:43.819Z,43.14
2019-05-19T17:13:12.480Z,43.08
2019-05-19T17:15:41.195Z,43.15
2019-05-19T17:18:09.978Z,42.95
2019-05-19T17:20:38.638Z,43.10
2019-05-19T17:23:07.250Z,43.13
2019-05-19T17:25:37.235Z,43.22
2019-05-19T17:28:05.866Z,43.43
2019-05-19T17:30:34.537Z,43.59
2019-05-19T17:33:03.252Z,43.68
2019-05-19T17:35:32.251Z,43.51
2019-05-19T17:38:00.964Z,43.63
2019-05-19T17:40:30.245Z,43.98
2019-05-19T17:42:59.163Z,43.98
2019-05-19T17:45:27.805Z,43.87
2019-05-19T17:48:09.200Z,43.81
2019-05-19T17:50:32.041Z,43.67
2019-05-19T17:53:00.761Z,43.56
2019-05-19T17:55:31.299Z,43.52
2019-05-19T17:58:01.478Z,43.62
2019-05-19T18:00:36.287Z,43.51
2019-05-19T18:03:06.042Z,42.96
2019-05-19T18:05:34.932Z,42.71
2019-05-19T18:08:03.784Z,42.74
2019-05-19T18:10:32.546Z,42.66
2019-05-19T18:13:01.234Z,42.52
2019-05-19T18:15:29.878Z,41.98
2019-05-19T18:17:58.572Z,42.32
2019-05-19T18:20:27.346Z,42.08
2019-05-19T18:22:56.067Z,42.16
2019-05-19T18:25:24.782Z,42.23
2019-05-19T18:27:53.557Z,42.31
2019-05-19T18:30:22.278Z,42.41
2019-05-19T18:32:51.046Z,42.16
2019-05-19T18:35:19.984Z,42.05
2019-05-19T18:37:48.713Z,42.28
2019-05-19T18:40:17.537Z,42.37
2019-05-19T18:42:46.210Z,42.29
2019-05-19T18:45:15.174Z,42.27
2019-05-19T18:47:43.792Z,42.20
2019-05-19T18:50:12.753Z,42.10
2019-05-19T18:52:41.534Z,42.08
2019-05-19T18:55:10.491Z,41.86
2019-05-19T18:57:39.123Z,41.43
2019-05-19T19:00:08.163Z,41.46
2019-05-19T19:02:36.910Z,41.32
2019-05-19T19:05:07.395Z,41.34
2019-05-19T19:07:52.634Z,41.10
2019-05-19T19:10:21.379Z,41.18
2019-05-19T19:12:50.182Z,41.23
2019-05-19T19:15:18.989Z,41.18
2019-05-19T19:17:47.677Z,41.30
2019-05-19T19:20:16.653Z,41.06
2019-05-19T19:22:45.367Z,41.10
2019-05-19T19:25:14.117Z,41.61
2019-05-19T19:27:42.760Z,41.58
2019-05-19T19:30:12.705Z,41.52
2019-05-19T19:32:41.333Z,41.80
2019-05-19T19:35:10.184Z,41.43
2019-05-19T19:37:38.877Z,41.56
2019-05-19T19:40:08.651Z,41.13
2019-05-19T19:42:37.313Z,41.12
2019-05-19T19:45:06.383Z,40.71
2019-05-19T19:47:35.122Z,40.18
2019-05-19T19:50:05.053Z,40.18
2019-05-19T19:52:33.705Z,40.09
2019-05-19T19:55:02.467Z,39.95
2019-05-19T19:57:31.220Z,39.75
2019-05-19T20:00:00.001Z,39.87
2019-05-19T20:02:28.730Z,39.89
2019-05-19T20:04:57.434Z,39.72
2019-05-19T20:07:26.196Z,39.73
2019-05-19T20:09:54.869Z,39.65
2019-05-19T20:12:23.602Z,39.55
2019-05-19T20:14:52.284Z,39.70
2019-05-19T20:17:20.991Z,39.59
2019-05-19T20:19:49.787Z,39.37
2019-05-19T20:22:18.562Z,39.57
2019-05-19T20:24:47.338Z,39.75
2019-05-19T20:27:15.935Z,39.82
2019-05-19T20:29:44.867Z,40.15
2019-05-19T20:32:13.562Z,39.54
2019-05-19T20:34:42.340Z,39.65
2019-05-19T20:37:11.042Z,39.59
2019-05-19T20:39:39.690Z,39.63
2019-05-19T20:42:08.408Z,39.44
2019-05-19T20:44:37.192Z,39.39
2019-05-19T20:47:05.909Z,39.60
2019-05-19T20:49:34.641Z,39.13
2019-05-19T20:52:03.331Z,39.18
2019-05-19T20:54:31.896Z,39.03
2019-05-19T20:57:00.657Z,38.85
2019-05-19T20:59:29.389Z,38.76
2019-05-19T21:01:58.165Z,38.71
2019-05-19T21:04:27.648Z,38.36
2019-05-19T21:06:56.398Z,38.50
2019-05-19T21:09:25.054Z,38.53
2019-05-19T21:11:53.699Z,38.63
2019-05-19T21:14:22.325Z,38.52
2019-05-19T21:16:51.045Z,38.58
2019-05-19T21:19:19.776Z,38.45
2019-05-19T21:21:48.452Z,38.20
2019-05-19T21:24:17.118Z,38.30
2019-05-19T21:26:45.738Z,38.23
2019-05-19T21:29:14.425Z,38.11
2019-05-19T21:31:43.076Z,38.25
2019-05-19T21:34:11.897Z,37.92
2019-05-19T21:36:40.815Z,37.97
2019-05-19T21:39:09.513Z,37.28
2019-05-19T21:41:38.372Z,37.07
2019-05-19T21:44:07.202Z,36.87
2019-05-19T21:46:35.875Z,36.89
2019-05-19T21:49:04.500Z,36.39
2019-05-19T21:51:33.193Z,36.57
2019-05-19T21:54:01.907Z,36.75
2019-05-19T21:56:30.548Z,37.00
2019-05-19T21:58:59.257Z,36.75
2019-05-19T22:01:28.089Z,37.05
2019-05-19T22:03:56.820Z,37.48
2019-05-19T22:06:27.273Z,37.99
2019-05-19T22:08:55.837Z,39.04
2019-05-19T22:11:24.656Z,39.90
2019-05-19T22:13:53.413Z,40.59
2019-05-19T22:16:22.071Z,40.47
2019-05-19T22:18:50.807Z,41.35
2019-05-19T22:21:19.509Z,41.46
2019-05-19T22:23:48.236Z,42.13
2019-05-19T22:26:16.874Z,42.59
2019-05-19T22:28:45.654Z,41.55
2019-05-19T22:31:14.368Z,41.63
2019-05-19T22:33:43.176Z,41.93
2019-05-19T22:36:11.781Z,41.00
2019-05-19T22:38:40.475Z,41.31
2019-05-19T22:41:09.235Z,42.11
2019-05-19T22:43:37.818Z,42.25
2019-05-19T22:46:06.563Z,42.77
2019-05-19T22:48:35.266Z,42.01
2019-05-19T22:51:03.913Z,41.90
2019-05-19T22:53:32.896Z,42.61
2019-05-19T22:56:01.696Z,42.01
2019-05-19T22:58:30.388Z,42.25
2019-05-19T23:00:59.110Z,42.66
2019-05-19T23:03:27.751Z,44.00
2019-05-19T23:05:56.404Z,43.98
2019-05-19T23:08:25.162Z,44.63
2019-05-19T23:10:53.800Z,44.80
2019-05-19T23:13:22.462Z,45.32
2019-05-19T23:15:51.157Z,44.54
2019-05-19T23:18:19.874Z,45.20
2019-05-19T23:20:48.502Z,45.77
2019-05-19T23:23:17.186Z,46.74
2019-05-19T23:25:45.802Z,45.62
2019-05-19T23:28:14.317Z,45.80
2019-05-19T23:30:43.245Z,45.88
2019-05-19T23:33:11.915Z,45.95
2019-05-19T23:35:40.508Z,45.95
2019-05-19T23:38:09.198Z,46.19
2019-05-19T23:40:37.964Z,46.10
2019-05-19T23:43:06.691Z,45.70
2019-05-19T23:45:35.391Z,45.72
2019-05-19T23:48:04.051Z,46.98
2019-05-19T23:50:32.757Z,46.93
2019-05-19T23:53:01.454Z,46.50
2019-05-19T23:55:30.118Z,46.50
2019-05-19T23:57:58.800Z,46.31
